Wellesley Island, New York
Current Conditions -  °F | °C
As of 6:56 AM on Sunday 25 Jan 2015 (Local Time) from KART Reporting Station
Clear Clear  
Wind Chill:   Ceiling: Unl
Heat Index: 13°   Visibility: 10mi
Dew Point:   Wind: 9mph
Humidity: 65%   Direction: 360°N
Pressure: 29.77"   Gusts: NA
Location:  44.29°N, 76.01°W
Report Text: KART 251156Z AUTO 36008KT 10SM CLR M11/M16 A2977 RMK AO2 SLP087 60000 70002 T11061161 10011 21106 51074
Loading
Personal Weather Stations






























Interactive Weather Map New forecast layout! Learn more

10-Day Weather Forecast

Advertisements
Track Severe Weather on mobile